Time;durP1;ratioP1;P1;durP2;ratioP2;P2;SDS_P1;SDS_P2;PMS_P1;PMS_P2;Temp;Humidity;BMP_temperature;BMP_pressure;BME280_temperature;BME280_humidity;BME280_pressure;Samples;Min_cycle;Max_cycle;Signal;HPM_P1;HPM_P2
2023/12/03 00:01:37;;;;;;;344.05;121.63;;;;;;;;;;5052017;28;20071;-84
2023/12/03 00:04:03;;;;;;;350.15;123.50;;;;;;;;;;5052042;28;20473;-85
2023/12/03 00:06:29;;;;;;;350.85;121.95;;;;;;;;;;5051523;28;20037;-86
2023/12/03 00:08:55;;;;;;;339.50;121.07;;;;;;;;;;5052600;28;20075;-86
2023/12/03 00:11:21;;;;;;;350.00;122.57;;;;;;;;;;5033994;28;20035;-86
2023/12/03 00:13:47;;;;;;;296.67;107.82;;;;;;;;;;5052176;28;20350;-86
2023/12/03 00:16:13;;;;;;;318.42;116.63;;;;;;;;;;5051978;28;20456;-86
2023/12/03 00:18:39;;;;;;;321.88;115.43;;;;;;;;;;5051904;28;20112;-86
2023/12/03 00:21:06;;;;;;;332.38;118.65;;;;;;;;;;5051897;28;20029;-86
2023/12/03 00:23:32;;;;;;;321.25;114.95;;;;;;;;;;5033942;28;20036;-86
2023/12/03 00:25:57;;;;;;;320.92;114.68;;;;;;;;;;5034453;28;20025;-86
2023/12/03 00:28:23;;;;;;;320.05;114.75;;;;;;;;;;5052237;28;20037;-86
2023/12/03 00:30:49;;;;;;;321.15;114.88;;;;;;;;;;5051803;28;20029;-87
2023/12/03 00:33:15;;;;;;;325.52;116.75;;;;;;;;;;5033791;28;20393;-86
2023/12/03 00:35:41;;;;;;;321.80;116.30;;;;;;;;;;5051624;28;20028;-86
2023/12/03 00:38:07;;;;;;;327.63;116.28;;;;;;;;;;5051635;28;20545;-86
2023/12/03 00:40:33;;;;;;;319.33;113.97;;;;;;;;;;5051488;28;20048;-86
2023/12/03 00:43:00;;;;;;;316.67;113.13;;;;;;;;;;5034037;28;20389;-86
2023/12/03 00:45:26;;;;;;;310.38;112.88;;;;;;;;;;5052294;28;20028;-85
2023/12/03 00:47:52;;;;;;;329.25;116.45;;;;;;;;;;5051120;28;20055;-86
2023/12/03 00:50:17;;;;;;;332.92;120.03;;;;;;;;;;5051373;28;20025;-86
2023/12/03 00:52:43;;;;;;;336.85;120.07;;;;;;;;;;5051235;28;20033;-86
2023/12/03 00:55:09;;;;;;;336.52;120.28;;;;;;;;;;5051310;28;20053;-86
2023/12/03 00:57:35;;;;;;;336.75;119.88;;;;;;;;;;5051198;28;20063;-87
2023/12/03 01:00:01;;;;;;;322.77;115.63;;;;;;;;;;5051156;28;20048;-86
2023/12/03 01:02:27;;;;;;;323.20;115.40;;;;;;;;;;5051697;28;20401;-86
2023/12/03 01:04:53;;;;;;;310.48;112.57;;;;;;;;;;5051076;28;20051;-86
2023/12/03 01:07:19;;;;;;;320.95;116.03;;;;;;;;;;5032993;28;20033;-87
2023/12/03 01:09:45;;;;;;;319.27;114.68;;;;;;;;;;5050906;28;20060;-86
2023/12/03 01:12:11;;;;;;;326.13;116.15;;;;;;;;;;5050970;28;20366;-86
2023/12/03 01:14:37;;;;;;;316.73;113.80;;;;;;;;;;5033048;28;20040;-87
2023/12/03 01:17:03;;;;;;;314.88;113.25;;;;;;;;;;5032933;28;20099;-86
2023/12/03 01:19:29;;;;;;;308.80;111.03;;;;;;;;;;5051655;28;20025;-86
2023/12/03 01:21:55;;;;;;;310.55;111.15;;;;;;;;;;5050782;28;20025;-87
2023/12/03 01:24:21;;;;;;;311.45;111.78;;;;;;;;;;5050829;28;20654;-87
2023/12/03 01:26:47;;;;;;;324.85;115.90;;;;;;;;;;5032723;28;20043;-87
2023/12/03 01:29:13;;;;;;;326.83;116.85;;;;;;;;;;5050638;28;20527;-87
2023/12/03 01:31:39;;;;;;;320.05;116.43;;;;;;;;;;5050542;28;20039;-87
2023/12/03 01:34:05;;;;;;;325.42;115.35;;;;;;;;;;5050541;28;20546;-86
2023/12/03 01:36:32;;;;;;;323.92;115.32;;;;;;;;;;5033367;28;20116;-86
2023/12/03 01:38:58;;;;;;;331.27;116.43;;;;;;;;;;5033328;28;20124;-86
2023/12/03 01:41:23;;;;;;;325.92;115.95;;;;;;;;;;5032526;28;20445;-87
2023/12/03 01:43:50;;;;;;;323.48;115.97;;;;;;;;;;5050295;28;20059;-87
2023/12/03 01:46:16;;;;;;;333.65;119.63;;;;;;;;;;5032189;28;20420;-87
2023/12/03 01:48:45;;;;;;;328.45;117.55;;;;;;;;;;5050176;28;20393;-87
2023/12/03 01:51:11;;;;;;;327.15;116.97;;;;;;;;;;5032225;28;20056;-86
2023/12/03 01:53:41;;;;;;;330.92;118.90;;;;;;;;;;5050157;28;20052;-86
2023/12/03 01:56:08;;;;;;;315.33;113.15;;;;;;;;;;5050259;28;20029;-87
2023/12/03 01:58:34;;;;;;;324.33;113.82;;;;;;;;;;5050145;28;20099;-86
2023/12/03 02:01:01;;;;;;;323.75;114.68;;;;;;;;;;5050614;28;20021;-86
2023/12/03 02:03:27;;;;;;;318.83;114.13;;;;;;;;;;5049864;28;20025;-86
2023/12/03 02:06:05;;;;;;;338.27;119.07;;;;;;;;;;5049815;28;20025;-86
2023/12/03 02:08:31;;;;;;;325.92;116.88;;;;;;;;;;5050286;28;20032;-86
2023/12/03 02:10:58;;;;;;;324.35;115.22;;;;;;;;;;5049901;28;20096;-86
2023/12/03 02:13:24;;;;;;;328.92;118.43;;;;;;;;;;5049641;28;20539;-85
2023/12/03 02:15:50;;;;;;;338.88;119.88;;;;;;;;;;5049693;28;20436;-85
2023/12/03 02:18:16;;;;;;;340.60;122.10;;;;;;;;;;5030118;28;20060;-86
2023/12/03 02:20:42;;;;;;;347.42;123.53;;;;;;;;;;5028868;28;20014;-85
2023/12/03 02:23:08;;;;;;;337.23;119.35;;;;;;;;;;5029139;28;20098;-85
2023/12/03 02:25:34;;;;;;;341.33;119.22;;;;;;;;;;5030502;28;20028;-86
2023/12/03 02:28:00;;;;;;;334.80;118.40;;;;;;;;;;5030156;28;20468;-85
2023/12/03 02:30:26;;;;;;;322.33;116.32;;;;;;;;;;5011848;28;20117;-85
2023/12/03 02:32:52;;;;;;;338.52;120.45;;;;;;;;;;5029382;28;20087;-85
2023/12/03 02:35:18;;;;;;;336.48;118.05;;;;;;;;;;5029390;28;20100;-85
2023/12/03 02:37:44;;;;;;;335.25;119.75;;;;;;;;;;5011655;28;20544;-86
2023/12/03 02:40:10;;;;;;;336.30;119.22;;;;;;;;;;5029421;28;20021;-85
2023/12/03 02:42:36;;;;;;;330.15;117.07;;;;;;;;;;5011907;28;20029;-85
2023/12/03 02:45:03;;;;;;;337.63;119.22;;;;;;;;;;5030111;28;20092;-85
2023/12/03 02:47:29;;;;;;;333.70;118.13;;;;;;;;;;5029197;28;20041;-85
2023/12/03 02:49:55;;;;;;;344.38;123.15;;;;;;;;;;5029306;28;20038;-86
2023/12/03 02:52:20;;;;;;;344.42;121.38;;;;;;;;;;5029307;28;20029;-85
2023/12/03 02:54:46;;;;;;;345.80;122.47;;;;;;;;;;5029222;28;20473;-84
2023/12/03 02:57:12;;;;;;;344.95;123.55;;;;;;;;;;5029160;28;20025;-86
2023/12/03 02:59:38;;;;;;;335.40;119.00;;;;;;;;;;5029094;28;20129;-85
2023/12/03 03:02:04;;;;;;;334.30;117.95;;;;;;;;;;5029852;28;20041;-86
2023/12/03 03:04:30;;;;;;;336.38;119.43;;;;;;;;;;5029118;28;20026;-86
2023/12/03 03:06:56;;;;;;;324.50;116.25;;;;;;;;;;5028987;28;20121;-85
2023/12/03 03:09:22;;;;;;;356.95;125.90;;;;;;;;;;5011360;28;20394;-86
2023/12/03 03:11:48;;;;;;;358.33;126.70;;;;;;;;;;5028948;28;20033;-86
2023/12/03 03:14:14;;;;;;;354.38;124.18;;;;;;;;;;5029087;28;20036;-86
2023/12/03 03:16:40;;;;;;;337.52;120.93;;;;;;;;;;5028867;28;20433;-85
2023/12/03 03:19:06;;;;;;;342.38;121.75;;;;;;;;;;5029658;28;20036;-86
2023/12/03 03:21:38;;;;;;;348.92;122.88;;;;;;;;;;5030878;28;20068;-86
2023/12/03 03:24:04;;;;;;;344.58;122.80;;;;;;;;;;5033872;28;20068;-86
2023/12/03 03:26:30;;;;;;;346.10;122.95;;;;;;;;;;5032569;28;20032;-85
2023/12/03 03:28:56;;;;;;;354.58;125.05;;;;;;;;;;5032677;28;20055;-85
2023/12/03 03:31:22;;;;;;;352.45;124.22;;;;;;;;;;5032598;28;20017;-85
2023/12/03 03:33:49;;;;;;;356.85;125.43;;;;;;;;;;5032920;28;20025;-86
2023/12/03 03:36:15;;;;;;;341.25;120.82;;;;;;;;;;5032679;28;20021;-85
2023/12/03 03:38:42;;;;;;;347.42;123.15;;;;;;;;;;5032684;28;20048;-85
2023/12/03 03:41:09;;;;;;;341.42;121.28;;;;;;;;;;5032488;28;20088;-86
2023/12/03 03:43:35;;;;;;;344.00;122.57;;;;;;;;;;5032561;28;20018;-85
2023/12/03 03:46:01;;;;;;;348.77;121.78;;;;;;;;;;5028947;28;20444;-86
2023/12/03 03:48:27;;;;;;;356.70;125.68;;;;;;;;;;5031727;28;20037;-85
2023/12/03 03:50:53;;;;;;;351.17;124.20;;;;;;;;;;5031535;28;20025;-86
2023/12/03 03:53:19;;;;;;;340.77;120.30;;;;;;;;;;5029452;28;20088;-85
2023/12/03 03:55:45;;;;;;;352.27;125.35;;;;;;;;;;5006877;28;20504;-85
2023/12/03 03:58:11;;;;;;;341.30;121.80;;;;;;;;;;5030365;28;20517;-85
2023/12/03 04:00:37;;;;;;;340.92;119.95;;;;;;;;;;5031981;28;20025;-85
2023/12/03 04:03:03;;;;;;;341.17;120.13;;;;;;;;;;5031076;28;20120;-84
2023/12/03 04:05:30;;;;;;;345.17;122.05;;;;;;;;;;5031596;28;20080;-85
2023/12/03 04:07:56;;;;;;;235.57;89.20;;;;;;;;;;5031329;28;20083;-85
2023/12/03 04:10:22;;;;;;;282.10;103.15;;;;;;;;;;5013681;28;20021;-85
2023/12/03 04:12:48;;;;;;;299.65;108.65;;;;;;;;;;5031351;28;20037;-85
2023/12/03 04:15:14;;;;;;;341.52;119.93;;;;;;;;;;5032350;28;20025;-86
2023/12/03 04:17:40;;;;;;;335.02;118.75;;;;;;;;;;5014411;28;20021;-87
2023/12/03 04:20:07;;;;;;;329.98;116.32;;;;;;;;;;5033022;28;20025;-87
2023/12/03 04:22:33;;;;;;;326.98;115.50;;;;;;;;;;5013250;28;20024;-86
2023/12/03 04:24:59;;;;;;;337.88;119.78;;;;;;;;;;5031242;28;20030;-86
2023/12/03 04:27:26;;;;;;;342.70;121.60;;;;;;;;;;5031089;28;20036;-86
2023/12/03 04:29:52;;;;;;;335.08;119.18;;;;;;;;;;5013346;28;20025;-85
2023/12/03 04:32:18;;;;;;;336.75;119.05;;;;;;;;;;5032927;28;20021;-85
2023/12/03 04:34:44;;;;;;;333.13;116.82;;;;;;;;;;5031011;28;20109;-86
2023/12/03 04:37:10;;;;;;;333.95;117.30;;;;;;;;;;5031724;28;20053;-86
2023/12/03 04:39:36;;;;;;;328.92;115.90;;;;;;;;;;5031303;28;20076;-86
2023/12/03 04:42:02;;;;;;;325.67;115.78;;;;;;;;;;5030881;28;20535;-85
2023/12/03 04:44:28;;;;;;;325.92;115.90;;;;;;;;;;5030903;28;20087;-85
2023/12/03 04:46:54;;;;;;;332.55;118.57;;;;;;;;;;5030775;28;20033;-86
2023/12/03 04:49:20;;;;;;;327.60;116.97;;;;;;;;;;5030762;28;20370;-85
2023/12/03 04:51:46;;;;;;;331.38;118.45;;;;;;;;;;5030611;28;20024;-86
2023/12/03 04:54:12;;;;;;;315.65;113.68;;;;;;;;;;5030983;28;20052;-85
2023/12/03 04:56:38;;;;;;;324.05;116.57;;;;;;;;;;5031422;28;20093;-86
2023/12/03 04:59:04;;;;;;;322.25;114.75;;;;;;;;;;5030532;28;20027;-85
2023/12/03 05:01:30;;;;;;;327.17;117.25;;;;;;;;;;5030394;28;20025;-86
2023/12/03 05:03:56;;;;;;;334.10;117.55;;;;;;;;;;5030457;28;20508;-86
2023/12/03 05:06:22;;;;;;;336.25;118.57;;;;;;;;;;5030385;28;20489;-86
2023/12/03 05:08:48;;;;;;;214.00;82.88;;;;;;;;;;5031154;28;20036;-85
2023/12/03 05:11:14;;;;;;;327.27;115.40;;;;;;;;;;5030250;28;20359;-85
2023/12/03 05:13:40;;;;;;;327.23;115.10;;;;;;;;;;5013355;28;20017;-85
2023/12/03 05:16:06;;;;;;;325.65;116.10;;;;;;;;;;5030289;28;20049;-85
2023/12/03 05:18:32;;;;;;;329.85;116.45;;;;;;;;;;5030436;28;20401;-86
2023/12/03 05:20:58;;;;;;;338.95;118.63;;;;;;;;;;5030870;28;20026;-86
2023/12/03 05:23:25;;;;;;;330.60;117.20;;;;;;;;;;5030860;28;20025;-87
2023/12/03 05:25:51;;;;;;;337.65;119.78;;;;;;;;;;5030738;28;20021;-86
2023/12/03 05:28:17;;;;;;;342.70;119.60;;;;;;;;;;5030719;28;20037;-86
2023/12/03 05:30:43;;;;;;;345.95;120.07;;;;;;;;;;5031599;28;20075;-85
2023/12/03 05:33:10;;;;;;;348.13;120.28;;;;;;;;;;5031637;28;20053;-85
2023/12/03 05:35:36;;;;;;;346.08;120.00;;;;;;;;;;5030612;28;20619;-86
2023/12/03 05:38:02;;;;;;;351.10;121.20;;;;;;;;;;5030620;28;20035;-86
2023/12/03 05:40:28;;;;;;;339.65;118.47;;;;;;;;;;5030658;28;20025;-86
2023/12/03 05:42:54;;;;;;;356.13;122.80;;;;;;;;;;5012294;28;20044;-86
2023/12/03 05:45:20;;;;;;;349.02;121.93;;;;;;;;;;5029890;28;20481;-86
2023/12/03 05:47:46;;;;;;;346.15;119.43;;;;;;;;;;5030333;28;20080;-85
2023/12/03 05:50:12;;;;;;;344.40;119.28;;;;;;;;;;5031110;28;20032;-85
2023/12/03 05:52:38;;;;;;;347.05;119.60;;;;;;;;;;5030275;28;20025;-85
2023/12/03 05:55:04;;;;;;;354.50;122.95;;;;;;;;;;5046816;28;20028;-87
2023/12/03 05:57:30;;;;;;;353.33;122.47;;;;;;;;;;5050107;28;20021;-87
2023/12/03 05:59:56;;;;;;;351.77;121.50;;;;;;;;;;5050040;28;20025;-91
2023/12/03 06:02:22;;;;;;;345.65;119.07;;;;;;;;;;5049912;28;20062;-87
2023/12/03 06:04:48;;;;;;;340.25;117.70;;;;;;;;;;5049942;28;20550;-87
2023/12/03 06:07:14;;;;;;;335.33;115.95;;;;;;;;;;5032735;28;20154;-87
2023/12/03 06:09:40;;;;;;;329.13;114.15;;;;;;;;;;5049862;28;20495;-86
2023/12/03 06:12:07;;;;;;;341.52;117.70;;;;;;;;;;5029700;28;20545;-86
2023/12/03 06:14:32;;;;;;;351.05;120.80;;;;;;;;;;5029930;28;20057;-87
2023/12/03 06:16:58;;;;;;;348.50;120.68;;;;;;;;;;5029837;28;20040;-85
2023/12/03 06:19:24;;;;;;;350.77;120.68;;;;;;;;;;5029815;28;20800;-87
2023/12/03 06:21:50;;;;;;;336.33;115.80;;;;;;;;;;5029733;28;20031;-87
2023/12/03 06:24:17;;;;;;;346.80;119.10;;;;;;;;;;5030592;28;20017;-86
2023/12/03 06:26:43;;;;;;;348.75;119.78;;;;;;;;;;5030335;28;20029;-84
2023/12/03 06:29:09;;;;;;;341.05;117.90;;;;;;;;;;5029608;28;20457;-84
2023/12/03 06:31:35;;;;;;;347.35;118.78;;;;;;;;;;5029552;28;20030;-84
2023/12/03 06:34:01;;;;;;;356.98;122.55;;;;;;;;;;5029525;28;20489;-83
2023/12/03 06:36:27;;;;;;;354.52;121.03;;;;;;;;;;5029657;28;20113;-85
2023/12/03 06:38:53;;;;;;;355.70;121.43;;;;;;;;;;5029720;28;20022;-82
2023/12/03 06:41:19;;;;;;;354.23;120.07;;;;;;;;;;5029673;28;20465;-83
2023/12/03 06:43:45;;;;;;;355.10;119.68;;;;;;;;;;5030311;28;20022;-83
2023/12/03 06:46:11;;;;;;;348.92;119.25;;;;;;;;;;5028849;28;20029;-85
2023/12/03 06:48:37;;;;;;;360.33;121.88;;;;;;;;;;5028860;28;20044;-85
2023/12/03 06:51:03;;;;;;;362.10;122.35;;;;;;;;;;5028754;28;20022;-85
2023/12/03 06:53:29;;;;;;;360.48;121.70;;;;;;;;;;5028790;28;20520;-86
2023/12/03 06:55:55;;;;;;;366.02;124.03;;;;;;;;;;5028562;28;20025;-83
2023/12/03 06:58:21;;;;;;;355.65;120.15;;;;;;;;;;5028769;28;20409;-84
2023/12/03 07:00:47;;;;;;;355.20;120.72;;;;;;;;;;5029410;28;20217;-83
2023/12/03 07:03:13;;;;;;;359.60;121.50;;;;;;;;;;5025720;28;20033;-85
2023/12/03 07:05:41;;;;;;;360.85;122.15;;;;;;;;;;5028411;28;20604;-85
2023/12/03 07:08:07;;;;;;;336.95;115.32;;;;;;;;;;5028202;28;20037;-86
2023/12/03 07:10:33;;;;;;;343.20;117.85;;;;;;;;;;5011237;28;20018;-85
2023/12/03 07:12:59;;;;;;;342.35;118.15;;;;;;;;;;5028594;28;20041;-84
2023/12/03 07:15:25;;;;;;;343.33;117.68;;;;;;;;;;5028581;28;20448;-84
2023/12/03 07:17:51;;;;;;;333.90;115.45;;;;;;;;;;5028286;28;20037;-83
2023/12/03 07:20:18;;;;;;;321.90;112.13;;;;;;;;;;5029589;28;20075;-88
2023/12/03 07:22:44;;;;;;;168.38;66.88;;;;;;;;;;5011091;28;20033;-88
2023/12/03 07:25:10;;;;;;;253.07;91.85;;;;;;;;;;5028870;28;20033;-84
2023/12/03 07:27:37;;;;;;;280.25;100.40;;;;;;;;;;5028858;28;20033;-83
2023/12/03 07:30:03;;;;;;;294.30;103.82;;;;;;;;;;5011025;28;20096;-83
2023/12/03 07:32:29;;;;;;;273.50;97.70;;;;;;;;;;5011214;28;20111;-83
2023/12/03 07:34:55;;;;;;;299.25;106.05;;;;;;;;;;5028746;28;20080;-82
2023/12/03 07:37:21;;;;;;;290.48;102.03;;;;;;;;;;5011118;28;20025;-83
2023/12/03 07:39:47;;;;;;;291.40;102.00;;;;;;;;;;5011839;28;20018;-84
2023/12/03 07:42:13;;;;;;;297.13;103.68;;;;;;;;;;5028751;28;20481;-84
2023/12/03 07:44:39;;;;;;;295.60;104.13;;;;;;;;;;5028619;28;20032;-84
2023/12/03 07:47:05;;;;;;;281.20;99.43;;;;;;;;;;5028653;28;20042;-82
2023/12/03 07:49:31;;;;;;;289.23;102.15;;;;;;;;;;5027710;28;20130;-83
2023/12/03 07:51:57;;;;;;;287.10;102.22;;;;;;;;;;5025251;28;20548;-83
2023/12/03 07:54:23;;;;;;;308.55;106.40;;;;;;;;;;5027689;28;20101;-82
2023/12/03 07:56:49;;;;;;;294.20;102.35;;;;;;;;;;5028462;28;20025;-83
2023/12/03 07:59:15;;;;;;;298.23;104.00;;;;;;;;;;5028479;28;20029;-83
2023/12/03 08:01:41;;;;;;;316.27;109.32;;;;;;;;;;5028348;28;20403;-82
2023/12/03 08:04:07;;;;;;;316.38;109.72;;;;;;;;;;5010655;28;20452;-84
2023/12/03 08:06:34;;;;;;;318.23;109.22;;;;;;;;;;5028815;28;20385;-82
2023/12/03 08:09:01;;;;;;;307.42;107.47;;;;;;;;;;5031445;28;20079;-83
2023/12/03 08:11:28;;;;;;;315.45;109.10;;;;;;;;;;5031426;28;20593;-82
2023/12/03 08:13:54;;;;;;;324.33;110.72;;;;;;;;;;5031622;28;20026;-82
2023/12/03 08:16:21;;;;;;;333.23;113.30;;;;;;;;;;5032286;28;20493;-81
2023/12/03 08:18:47;;;;;;;320.00;110.80;;;;;;;;;;5032902;28;20402;-82
2023/12/03 08:21:13;;;;;;;341.75;115.72;;;;;;;;;;5032651;28;20025;-82
2023/12/03 08:23:40;;;;;;;354.33;120.13;;;;;;;;;;5032566;28;20022;-88
2023/12/03 08:26:06;;;;;;;366.00;120.72;;;;;;;;;;5031828;28;20024;-81
2023/12/03 08:28:32;;;;;;;354.23;119.75;;;;;;;;;;5031921;28;20030;-81
2023/12/03 08:30:58;;;;;;;364.70;122.93;;;;;;;;;;5031811;28;20101;-82
2023/12/03 08:33:24;;;;;;;358.92;121.35;;;;;;;;;;5031853;28;20021;-81
2023/12/03 08:35:50;;;;;;;354.33;118.75;;;;;;;;;;5032571;28;20458;-82
2023/12/03 08:38:16;;;;;;;347.05;118.20;;;;;;;;;;5031708;28;20021;-82
2023/12/03 08:40:42;;;;;;;379.27;126.53;;;;;;;;;;5031678;28;20065;-81
2023/12/03 08:43:08;;;;;;;372.35;123.53;;;;;;;;;;5031535;28;20385;-82
2023/12/03 08:45:34;;;;;;;380.88;126.07;;;;;;;;;;5031610;28;20029;-81
2023/12/03 08:48:00;;;;;;;378.23;125.30;;;;;;;;;;5031372;28;20046;-81
2023/12/03 08:50:28;;;;;;;358.30;120.28;;;;;;;;;;5031386;28;20091;-81
2023/12/03 08:52:55;;;;;;;353.23;118.63;;;;;;;;;;5031856;28;20036;-81
2023/12/03 08:55:21;;;;;;;363.90;120.30;;;;;;;;;;5032112;28;20252;-81
2023/12/03 08:57:47;;;;;;;365.13;121.88;;;;;;;;;;5031313;28;20025;-81
2023/12/03 09:00:15;;;;;;;367.58;123.13;;;;;;;;;;5031299;28;20049;-81
2023/12/03 09:02:41;;;;;;;358.92;119.45;;;;;;;;;;5031119;28;20060;-81
2023/12/03 09:05:07;;;;;;;362.00;121.28;;;;;;;;;;5031188;28;20060;-81
2023/12/03 09:07:33;;;;;;;372.45;122.07;;;;;;;;;;5031046;28;20481;-81
2023/12/03 09:09:59;;;;;;;377.15;124.35;;;;;;;;;;5031097;28;20021;-82
2023/12/03 09:12:25;;;;;;;372.23;122.65;;;;;;;;;;5031477;28;20029;-81
2023/12/03 09:14:51;;;;;;;359.20;118.88;;;;;;;;;;5031817;28;20053;-81
2023/12/03 09:17:17;;;;;;;362.63;119.20;;;;;;;;;;5030859;28;20109;-81
2023/12/03 09:19:43;;;;;;;366.85;122.32;;;;;;;;;;5030964;28;20545;-82
2023/12/03 09:22:09;;;;;;;361.20;119.60;;;;;;;;;;5013089;28;20021;-82
2023/12/03 09:24:35;;;;;;;372.02;122.45;;;;;;;;;;5030797;28;20096;-87
2023/12/03 09:27:01;;;;;;;349.73;116.53;;;;;;;;;;5030814;28;20094;-85
2023/12/03 09:29:27;;;;;;;366.23;121.80;;;;;;;;;;5030614;28;20030;-82
2023/12/03 09:31:53;;;;;;;343.48;115.55;;;;;;;;;;5031505;28;20056;-82
2023/12/03 09:34:19;;;;;;;361.85;119.82;;;;;;;;;;5030620;28;20389;-85
2023/12/03 09:36:45;;;;;;;354.77;117.07;;;;;;;;;;5030482;28;20033;-87
2023/12/03 09:39:11;;;;;;;376.30;122.78;;;;;;;;;;5030502;28;20022;-82
2023/12/03 09:41:49;;;;;;;360.55;117.35;;;;;;;;;;5030499;28;20104;-82
2023/12/03 09:44:27;;;;;;;357.20;117.22;;;;;;;;;;5030486;28;20041;-82
2023/12/03 09:46:54;;;;;;;374.67;121.38;;;;;;;;;;5031166;28;20477;-82
2023/12/03 09:49:23;;;;;;;339.65;112.78;;;;;;;;;;5030404;28;20033;-84
2023/12/03 09:51:50;;;;;;;347.40;115.50;;;;;;;;;;5012566;28;20025;-85
2023/12/03 09:54:16;;;;;;;349.17;114.95;;;;;;;;;;5030244;28;20025;-83
2023/12/03 09:56:43;;;;;;;345.48;114.47;;;;;;;;;;5030222;28;20037;-82
2023/12/03 09:59:13;;;;;;;374.33;120.75;;;;;;;;;;5030128;28;20105;-82
2023/12/03 10:01:39;;;;;;;357.55;117.97;;;;;;;;;;5012251;28;20418;-83
2023/12/03 10:04:05;;;;;;;373.38;119.47;;;;;;;;;;5030088;28;20022;-84
2023/12/03 10:06:32;;;;;;;362.60;119.05;;;;;;;;;;5029817;28;20037;-85
2023/12/03 10:08:59;;;;;;;341.50;113.57;;;;;;;;;;5012309;28;20056;-84
2023/12/03 10:11:26;;;;;;;368.48;120.03;;;;;;;;;;5030726;28;20516;-82
2023/12/03 10:13:54;;;;;;;343.95;114.53;;;;;;;;;;5029989;28;20025;-82
2023/12/03 10:16:22;;;;;;;366.88;118.45;;;;;;;;;;5029952;28;20025;-82
2023/12/03 10:18:50;;;;;;;354.88;115.78;;;;;;;;;;5029729;28;20276;-82
2023/12/03 10:21:16;;;;;;;335.20;110.90;;;;;;;;;;5029853;28;20056;-82
2023/12/03 10:23:42;;;;;;;360.40;116.40;;;;;;;;;;5029737;28;20029;-83
2023/12/03 10:26:11;;;;;;;373.95;119.45;;;;;;;;;;5029772;28;20022;-83
2023/12/03 10:28:37;;;;;;;343.17;112.78;;;;;;;;;;5029628;28;20041;-83
2023/12/03 10:31:03;;;;;;;328.40;108.60;;;;;;;;;;5029268;28;20055;-84
2023/12/03 10:33:30;;;;;;;337.77;110.25;;;;;;;;;;5029999;28;20512;-82
2023/12/03 10:36:02;;;;;;;339.48;109.97;;;;;;;;;;5030289;28;20485;-82
2023/12/03 10:38:35;;;;;;;357.00;114.30;;;;;;;;;;5030297;28;20049;-82
2023/12/03 10:41:03;;;;;;;362.88;115.38;;;;;;;;;;5029546;28;20489;-83
2023/12/03 10:43:30;;;;;;;354.55;113.43;;;;;;;;;;5030233;28;20022;-83
2023/12/03 10:45:56;;;;;;;367.80;117.38;;;;;;;;;;5030121;28;20371;-82
2023/12/03 10:48:22;;;;;;;357.23;114.05;;;;;;;;;;5029195;28;20512;-82
2023/12/03 10:50:49;;;;;;;362.17;115.07;;;;;;;;;;5029261;28;20018;-82
2023/12/03 10:53:15;;;;;;;370.85;116.82;;;;;;;;;;5029176;28;20033;-82
2023/12/03 10:55:43;;;;;;;340.85;109.40;;;;;;;;;;5029154;28;20064;-82
2023/12/03 10:58:11;;;;;;;358.92;113.93;;;;;;;;;;5029202;28;20588;-83
2023/12/03 11:00:40;;;;;;;313.30;103.20;;;;;;;;;;5029102;28;20022;-82
2023/12/03 11:03:14;;;;;;;322.55;105.85;;;;;;;;;;5028968;28;20033;-83
2023/12/03 11:05:47;;;;;;;337.40;110.20;;;;;;;;;;5029155;28;20112;-83
2023/12/03 11:08:15;;;;;;;323.67;106.38;;;;;;;;;;5029012;28;20029;-82
2023/12/03 11:10:41;;;;;;;349.42;112.78;;;;;;;;;;5029038;28;20025;-82
2023/12/03 11:13:09;;;;;;;371.52;118.00;;;;;;;;;;5028882;28;20026;-83
2023/12/03 11:15:35;;;;;;;356.17;114.10;;;;;;;;;;5029027;28;20053;-83
2023/12/03 11:18:01;;;;;;;358.73;114.00;;;;;;;;;;5029780;28;20166;-83
2023/12/03 11:20:32;;;;;;;367.42;116.78;;;;;;;;;;5012056;28;20033;-82
2023/12/03 11:23:23;;;;;;;328.80;107.18;;;;;;;;;;5029746;28;20018;-82
2023/12/03 11:26:02;;;;;;;362.92;116.30;;;;;;;;;;5028917;28;20053;-82
2023/12/03 11:28:28;;;;;;;340.23;109.50;;;;;;;;;;5029792;28;20366;-82
2023/12/03 11:30:54;;;;;;;310.55;102.82;;;;;;;;;;5028967;28;20481;-82
2023/12/03 11:33:21;;;;;;;319.45;106.07;;;;;;;;;;5028878;28;20036;-82
2023/12/03 11:35:48;;;;;;;332.23;107.35;;;;;;;;;;5028886;28;20025;-83
2023/12/03 11:38:34;;;;;;;337.45;109.30;;;;;;;;;;5028690;28;20090;-82
2023/12/03 11:41:01;;;;;;;354.08;112.22;;;;;;;;;;5029585;28;20033;-82
2023/12/03 11:43:28;;;;;;;376.00;117.65;;;;;;;;;;5032449;28;20026;-82
2023/12/03 11:45:54;;;;;;;338.08;108.90;;;;;;;;;;5032694;28;20029;-83
2023/12/03 11:48:21;;;;;;;342.65;110.40;;;;;;;;;;5032364;28;20084;-82
2023/12/03 11:50:48;;;;;;;347.83;111.03;;;;;;;;;;5032570;28;20547;-82
2023/12/03 11:53:15;;;;;;;333.63;108.20;;;;;;;;;;5032550;28;20026;-82
2023/12/03 11:55:44;;;;;;;323.57;104.47;;;;;;;;;;5032613;28;20060;-82
2023/12/03 11:58:10;;;;;;;332.20;107.28;;;;;;;;;;5032438;28;20064;-88
2023/12/03 12:00:37;;;;;;;326.63;105.35;;;;;;;;;;5014565;28;20363;-83
2023/12/03 12:03:04;;;;;;;330.60;105.70;;;;;;;;;;5032767;28;20489;-82
2023/12/03 12:05:31;;;;;;;240.88;82.57;;;;;;;;;;5015361;28;20029;-82
2023/12/03 12:08:01;;;;;;;319.00;102.18;;;;;;;;;;5032227;28;20037;-84
2023/12/03 12:10:27;;;;;;;316.58;102.72;;;;;;;;;;5032406;28;20031;-82
2023/12/03 12:12:53;;;;;;;315.88;101.45;;;;;;;;;;5032235;28;20025;-83
2023/12/03 12:15:20;;;;;;;324.17;102.65;;;;;;;;;;5032232;28;20049;-82
2023/12/03 12:17:46;;;;;;;318.88;102.43;;;;;;;;;;5032125;28;20033;-83
2023/12/03 12:20:12;;;;;;;314.55;101.78;;;;;;;;;;5031987;28;20018;-82
2023/12/03 12:22:38;;;;;;;312.55;101.15;;;;;;;;;;5032063;28;20084;-82
2023/12/03 12:25:05;;;;;;;305.58;99.78;;;;;;;;;;5032810;28;20470;-82
2023/12/03 12:27:31;;;;;;;293.90;96.57;;;;;;;;;;5032643;28;20037;-83
2023/12/03 12:29:57;;;;;;;305.98;99.32;;;;;;;;;;5031774;28;20028;-83
2023/12/03 12:32:23;;;;;;;317.00;102.38;;;;;;;;;;5031807;28;20026;-84
2023/12/03 12:34:49;;;;;;;317.23;101.32;;;;;;;;;;5031695;28;20029;-82
2023/12/03 12:37:15;;;;;;;331.65;105.50;;;;;;;;;;5031702;28;20071;-84
2023/12/03 12:39:41;;;;;;;337.15;105.85;;;;;;;;;;5031721;28;20035;-82
2023/12/03 12:42:07;;;;;;;336.38;105.65;;;;;;;;;;5031713;28;20028;-83
2023/12/03 12:44:40;;;;;;;343.42;107.07;;;;;;;;;;5032345;28;20388;-83
2023/12/03 12:47:06;;;;;;;340.38;106.10;;;;;;;;;;5031868;28;20063;-82
2023/12/03 12:49:33;;;;;;;357.35;110.53;;;;;;;;;;5032329;28;20029;-83
2023/12/03 12:52:15;;;;;;;345.88;107.95;;;;;;;;;;5031497;28;20048;-83
2023/12/03 12:54:44;;;;;;;360.17;111.57;;;;;;;;;;5031243;28;20108;-82
2023/12/03 12:57:10;;;;;;;353.70;108.60;;;;;;;;;;5031145;28;20476;-83
2023/12/03 12:59:36;;;;;;;360.85;109.75;;;;;;;;;;5032099;28;20026;-83
2023/12/03 13:02:02;;;;;;;339.90;105.25;;;;;;;;;;5014213;28;20516;-82
2023/12/03 13:04:28;;;;;;;329.30;102.53;;;;;;;;;;5031234;28;20029;-83
2023/12/03 13:06:54;;;;;;;350.95;106.68;;;;;;;;;;5030988;28;20028;-83
2023/12/03 13:09:20;;;;;;;369.33;112.03;;;;;;;;;;5031109;28;20033;-83
2023/12/03 13:11:46;;;;;;;360.02;109.07;;;;;;;;;;5031106;28;20072;-85
2023/12/03 13:14:12;;;;;;;351.83;107.40;;;;;;;;;;5031101;28;20025;-82
2023/12/03 13:16:38;;;;;;;337.75;103.40;;;;;;;;;;5031157;28;20014;-82
2023/12/03 13:19:04;;;;;;;349.88;106.65;;;;;;;;;;5031834;28;20433;-83
2023/12/03 13:21:30;;;;;;;379.50;110.85;;;;;;;;;;5030851;28;20478;-83
2023/12/03 13:23:56;;;;;;;364.00;109.70;;;;;;;;;;5013101;28;20084;-84
2023/12/03 13:26:22;;;;;;;367.35;109.93;;;;;;;;;;5030624;28;20017;-82
2023/12/03 13:28:48;;;;;;;334.73;103.90;;;;;;;;;;5030797;28;20044;-83
2023/12/03 13:31:14;;;;;;;339.65;104.68;;;;;;;;;;5030647;28;20026;-83
2023/12/03 13:33:40;;;;;;;338.85;104.22;;;;;;;;;;5030734;28;20249;-82
2023/12/03 13:36:06;;;;;;;308.73;97.47;;;;;;;;;;5031506;28;20406;-84
2023/12/03 13:38:33;;;;;;;280.95;90.90;;;;;;;;;;5030517;28;20026;-83
2023/12/03 13:40:59;;;;;;;314.75;99.50;;;;;;;;;;5012880;28;20235;-83
2023/12/03 13:43:25;;;;;;;331.67;104.20;;;;;;;;;;5030527;28;20032;-84
2023/12/03 13:45:51;;;;;;;314.73;100.03;;;;;;;;;;5030446;28;20038;-85
2023/12/03 13:48:17;;;;;;;285.58;92.93;;;;;;;;;;5030365;28;20065;-85
2023/12/03 13:50:43;;;;;;;291.35;94.68;;;;;;;;;;5030391;28;20071;-83